sensor_id;sensor_type;location;lat;lon;timestamp;P1;durP1;ratioP1;P2;durP2;ratioP2
16828;SDS011;8531;48.078;11.968;2023-12-20T00:00:25;1.90;;;1.48;;
16828;SDS011;8531;48.078;11.968;2023-12-20T00:02:51;2.20;;;1.40;;
16828;SDS011;8531;48.078;11.968;2023-12-20T00:05:17;1.77;;;1.38;;
16828;SDS011;8531;48.078;11.968;2023-12-20T00:07:42;3.50;;;1.65;;
16828;SDS011;8531;48.078;11.968;2023-12-20T00:10:08;6.30;;;1.58;;
16828;SDS011;8531;48.078;11.968;2023-12-20T00:12:34;1.83;;;1.13;;
16828;SDS011;8531;48.078;11.968;2023-12-20T00:15:00;2.30;;;1.17;;
16828;SDS011;8531;48.078;11.968;2023-12-20T00:17:25;1.50;;;1.20;;
16828;SDS011;8531;48.078;11.968;2023-12-20T00:19:51;3.17;;;1.52;;
16828;SDS011;8531;48.078;11.968;2023-12-20T00:22:17;1.60;;;1.20;;
16828;SDS011;8531;48.078;11.968;2023-12-20T00:24:42;2.17;;;1.30;;
16828;SDS011;8531;48.078;11.968;2023-12-20T00:27:08;3.05;;;1.20;;
16828;SDS011;8531;48.078;11.968;2023-12-20T00:29:33;2.17;;;1.52;;
16828;SDS011;8531;48.078;11.968;2023-12-20T00:31:59;2.42;;;1.30;;
16828;SDS011;8531;48.078;11.968;2023-12-20T00:34:25;3.13;;;2.03;;
16828;SDS011;8531;48.078;11.968;2023-12-20T00:36:50;2.17;;;1.40;;
16828;SDS011;8531;48.078;11.968;2023-12-20T00:39:16;2.90;;;1.50;;
16828;SDS011;8531;48.078;11.968;2023-12-20T00:41:42;2.85;;;1.88;;
16828;SDS011;8531;48.078;11.968;2023-12-20T00:44:07;2.35;;;1.48;;
16828;SDS011;8531;48.078;11.968;2023-12-20T00:46:33;3.15;;;1.60;;
16828;SDS011;8531;48.078;11.968;2023-12-20T00:48:59;1.42;;;1.15;;
16828;SDS011;8531;48.078;11.968;2023-12-20T00:51:24;1.75;;;1.27;;
16828;SDS011;8531;48.078;11.968;2023-12-20T00:53:50;2.03;;;1.40;;
16828;SDS011;8531;48.078;11.968;2023-12-20T00:56:19;2.78;;;1.35;;
16828;SDS011;8531;48.078;11.968;2023-12-20T00:58:45;1.77;;;1.60;;
16828;SDS011;8531;48.078;11.968;2023-12-20T01:01:11;1.95;;;1.42;;
16828;SDS011;8531;48.078;11.968;2023-12-20T01:03:38;1.35;;;1.05;;
16828;SDS011;8531;48.078;11.968;2023-12-20T01:06:03;1.70;;;1.40;;
16828;SDS011;8531;48.078;11.968;2023-12-20T01:08:30;3.47;;;1.17;;
16828;SDS011;8531;48.078;11.968;2023-12-20T01:10:55;1.88;;;1.35;;
16828;SDS011;8531;48.078;11.968;2023-12-20T01:13:21;5.55;;;2.03;;
16828;SDS011;8531;48.078;11.968;2023-12-20T01:15:47;2.63;;;1.40;;
16828;SDS011;8531;48.078;11.968;2023-12-20T01:18:13;1.63;;;1.15;;
16828;SDS011;8531;48.078;11.968;2023-12-20T01:20:39;4.47;;;1.75;;
16828;SDS011;8531;48.078;11.968;2023-12-20T01:23:05;2.00;;;1.50;;
16828;SDS011;8531;48.078;11.968;2023-12-20T01:25:30;2.95;;;1.85;;
16828;SDS011;8531;48.078;11.968;2023-12-20T01:27:56;12.93;;;1.73;;
16828;SDS011;8531;48.078;11.968;2023-12-20T01:30:21;1.95;;;1.25;;
16828;SDS011;8531;48.078;11.968;2023-12-20T01:32:47;3.10;;;1.23;;
16828;SDS011;8531;48.078;11.968;2023-12-20T01:35:13;2.97;;;1.30;;
16828;SDS011;8531;48.078;11.968;2023-12-20T01:37:38;1.48;;;1.30;;
16828;SDS011;8531;48.078;11.968;2023-12-20T01:40:04;2.10;;;1.05;;
16828;SDS011;8531;48.078;11.968;2023-12-20T01:42:30;1.45;;;0.98;;
16828;SDS011;8531;48.078;11.968;2023-12-20T01:44:56;1.73;;;1.10;;
16828;SDS011;8531;48.078;11.968;2023-12-20T01:47:22;2.05;;;1.50;;
16828;SDS011;8531;48.078;11.968;2023-12-20T01:49:48;1.55;;;1.30;;
16828;SDS011;8531;48.078;11.968;2023-12-20T01:52:14;1.48;;;1.10;;
16828;SDS011;8531;48.078;11.968;2023-12-20T01:54:40;1.63;;;1.05;;
16828;SDS011;8531;48.078;11.968;2023-12-20T01:57:07;2.72;;;1.27;;
16828;SDS011;8531;48.078;11.968;2023-12-20T01:59:34;1.65;;;1.20;;
16828;SDS011;8531;48.078;11.968;2023-12-20T02:02:00;2.85;;;1.35;;
16828;SDS011;8531;48.078;11.968;2023-12-20T02:04:26;1.48;;;0.80;;
16828;SDS011;8531;48.078;11.968;2023-12-20T02:06:52;3.35;;;1.40;;
16828;SDS011;8531;48.078;11.968;2023-12-20T02:09:18;1.92;;;1.55;;
16828;SDS011;8531;48.078;11.968;2023-12-20T02:11:44;2.55;;;1.60;;
16828;SDS011;8531;48.078;11.968;2023-12-20T02:14:09;4.07;;;1.23;;
16828;SDS011;8531;48.078;11.968;2023-12-20T02:16:35;2.63;;;1.35;;
16828;SDS011;8531;48.078;11.968;2023-12-20T02:19:01;2.88;;;1.45;;
16828;SDS011;8531;48.078;11.968;2023-12-20T02:21:32;1.20;;;1.08;;
16828;SDS011;8531;48.078;11.968;2023-12-20T02:23:58;3.75;;;1.15;;
16828;SDS011;8531;48.078;11.968;2023-12-20T02:26:24;1.77;;;1.33;;
16828;SDS011;8531;48.078;11.968;2023-12-20T02:28:50;1.38;;;1.23;;
16828;SDS011;8531;48.078;11.968;2023-12-20T02:31:15;1.60;;;1.20;;
16828;SDS011;8531;48.078;11.968;2023-12-20T02:33:41;3.00;;;1.33;;
16828;SDS011;8531;48.078;11.968;2023-12-20T02:36:07;1.65;;;1.40;;
16828;SDS011;8531;48.078;11.968;2023-12-20T02:38:33;1.90;;;1.30;;
16828;SDS011;8531;48.078;11.968;2023-12-20T02:40:59;1.40;;;1.20;;
16828;SDS011;8531;48.078;11.968;2023-12-20T02:43:24;1.35;;;0.95;;
16828;SDS011;8531;48.078;11.968;2023-12-20T02:45:50;1.83;;;1.35;;
16828;SDS011;8531;48.078;11.968;2023-12-20T02:48:16;1.88;;;1.48;;
16828;SDS011;8531;48.078;11.968;2023-12-20T02:50:41;1.92;;;1.50;;
16828;SDS011;8531;48.078;11.968;2023-12-20T02:53:07;3.25;;;1.60;;
16828;SDS011;8531;48.078;11.968;2023-12-20T02:55:33;4.20;;;1.52;;
16828;SDS011;8531;48.078;11.968;2023-12-20T02:57:58;2.10;;;1.70;;
16828;SDS011;8531;48.078;11.968;2023-12-20T03:00:24;3.38;;;1.70;;
16828;SDS011;8531;48.078;11.968;2023-12-20T03:02:50;3.33;;;1.75;;
16828;SDS011;8531;48.078;11.968;2023-12-20T03:05:16;2.58;;;1.30;;
16828;SDS011;8531;48.078;11.968;2023-12-20T03:07:41;2.13;;;1.67;;
16828;SDS011;8531;48.078;11.968;2023-12-20T03:10:07;1.73;;;1.15;;
16828;SDS011;8531;48.078;11.968;2023-12-20T03:12:34;2.63;;;1.50;;
16828;SDS011;8531;48.078;11.968;2023-12-20T03:15:00;1.55;;;1.42;;
16828;SDS011;8531;48.078;11.968;2023-12-20T03:17:25;2.45;;;1.67;;
16828;SDS011;8531;48.078;11.968;2023-12-20T03:19:51;3.03;;;2.10;;
16828;SDS011;8531;48.078;11.968;2023-12-20T03:22:16;1.92;;;1.55;;
16828;SDS011;8531;48.078;11.968;2023-12-20T03:24:42;1.70;;;1.30;;
16828;SDS011;8531;48.078;11.968;2023-12-20T03:27:08;1.77;;;1.25;;
16828;SDS011;8531;48.078;11.968;2023-12-20T03:29:33;2.20;;;1.50;;
16828;SDS011;8531;48.078;11.968;2023-12-20T03:31:59;2.55;;;1.65;;
16828;SDS011;8531;48.078;11.968;2023-12-20T03:34:25;2.38;;;1.30;;
16828;SDS011;8531;48.078;11.968;2023-12-20T03:36:51;1.52;;;1.30;;
16828;SDS011;8531;48.078;11.968;2023-12-20T03:39:17;2.25;;;1.60;;
16828;SDS011;8531;48.078;11.968;2023-12-20T03:41:43;2.35;;;1.27;;
16828;SDS011;8531;48.078;11.968;2023-12-20T03:44:08;2.33;;;1.35;;
16828;SDS011;8531;48.078;11.968;2023-12-20T03:46:34;1.73;;;1.00;;
16828;SDS011;8531;48.078;11.968;2023-12-20T03:49:00;2.05;;;1.08;;
16828;SDS011;8531;48.078;11.968;2023-12-20T03:51:25;3.78;;;1.52;;
16828;SDS011;8531;48.078;11.968;2023-12-20T03:53:51;1.63;;;1.10;;
16828;SDS011;8531;48.078;11.968;2023-12-20T03:56:16;1.77;;;1.00;;
16828;SDS011;8531;48.078;11.968;2023-12-20T03:58:42;1.10;;;0.90;;
16828;SDS011;8531;48.078;11.968;2023-12-20T04:01:11;1.80;;;1.20;;
16828;SDS011;8531;48.078;11.968;2023-12-20T04:03:37;1.48;;;1.10;;
16828;SDS011;8531;48.078;11.968;2023-12-20T04:06:03;2.05;;;1.17;;
16828;SDS011;8531;48.078;11.968;2023-12-20T04:08:29;1.38;;;1.13;;
16828;SDS011;8531;48.078;11.968;2023-12-20T04:10:55;2.58;;;1.38;;
16828;SDS011;8531;48.078;11.968;2023-12-20T04:13:21;0.77;;;0.70;;
16828;SDS011;8531;48.078;11.968;2023-12-20T04:15:46;1.27;;;0.98;;
16828;SDS011;8531;48.078;11.968;2023-12-20T04:18:13;1.38;;;0.80;;
16828;SDS011;8531;48.078;11.968;2023-12-20T04:20:38;1.30;;;0.95;;
16828;SDS011;8531;48.078;11.968;2023-12-20T04:23:04;3.20;;;1.25;;
16828;SDS011;8531;48.078;11.968;2023-12-20T04:25:29;1.27;;;0.90;;
16828;SDS011;8531;48.078;11.968;2023-12-20T04:27:55;3.13;;;0.88;;
16828;SDS011;8531;48.078;11.968;2023-12-20T04:30:21;1.70;;;0.88;;
16828;SDS011;8531;48.078;11.968;2023-12-20T04:32:46;1.70;;;1.00;;
16828;SDS011;8531;48.078;11.968;2023-12-20T04:35:12;1.20;;;0.80;;
16828;SDS011;8531;48.078;11.968;2023-12-20T04:37:38;2.00;;;0.88;;
16828;SDS011;8531;48.078;11.968;2023-12-20T04:40:03;1.23;;;0.88;;
16828;SDS011;8531;48.078;11.968;2023-12-20T04:42:30;3.22;;;0.70;;
16828;SDS011;8531;48.078;11.968;2023-12-20T04:44:56;3.55;;;0.80;;
16828;SDS011;8531;48.078;11.968;2023-12-20T04:47:21;1.55;;;0.85;;
16828;SDS011;8531;48.078;11.968;2023-12-20T04:49:47;1.20;;;0.70;;
16828;SDS011;8531;48.078;11.968;2023-12-20T04:52:13;0.50;;;0.50;;
16828;SDS011;8531;48.078;11.968;2023-12-20T04:54:39;0.70;;;0.60;;
16828;SDS011;8531;48.078;11.968;2023-12-20T04:57:05;0.55;;;0.32;;
16828;SDS011;8531;48.078;11.968;2023-12-20T04:59:31;1.25;;;0.50;;
16828;SDS011;8531;48.078;11.968;2023-12-20T05:01:56;2.42;;;0.57;;
16828;SDS011;8531;48.078;11.968;2023-12-20T05:04:22;1.30;;;0.80;;
16828;SDS011;8531;48.078;11.968;2023-12-20T05:06:48;2.33;;;0.60;;
16828;SDS011;8531;48.078;11.968;2023-12-20T05:09:15;1.45;;;0.40;;
16828;SDS011;8531;48.078;11.968;2023-12-20T05:11:41;1.08;;;0.43;;
16828;SDS011;8531;48.078;11.968;2023-12-20T05:14:06;0.50;;;0.40;;
16828;SDS011;8531;48.078;11.968;2023-12-20T05:16:32;0.68;;;0.25;;
16828;SDS011;8531;48.078;11.968;2023-12-20T05:18:58;0.95;;;0.38;;
16828;SDS011;8531;48.078;11.968;2023-12-20T05:21:26;0.63;;;0.50;;
16828;SDS011;8531;48.078;11.968;2023-12-20T05:23:51;0.90;;;0.52;;
16828;SDS011;8531;48.078;11.968;2023-12-20T05:26:17;3.38;;;1.30;;
16828;SDS011;8531;48.078;11.968;2023-12-20T05:28:43;1.77;;;0.55;;
16828;SDS011;8531;48.078;11.968;2023-12-20T05:31:09;1.75;;;0.40;;
16828;SDS011;8531;48.078;11.968;2023-12-20T05:33:35;1.30;;;0.70;;
16828;SDS011;8531;48.078;11.968;2023-12-20T05:36:00;1.75;;;0.68;;
16828;SDS011;8531;48.078;11.968;2023-12-20T05:38:26;0.80;;;0.47;;
16828;SDS011;8531;48.078;11.968;2023-12-20T05:40:52;0.77;;;0.50;;
16828;SDS011;8531;48.078;11.968;2023-12-20T05:43:17;0.70;;;0.45;;
16828;SDS011;8531;48.078;11.968;2023-12-20T05:45:43;1.00;;;0.50;;
16828;SDS011;8531;48.078;11.968;2023-12-20T05:48:09;1.08;;;0.50;;
16828;SDS011;8531;48.078;11.968;2023-12-20T05:50:34;1.77;;;0.52;;
16828;SDS011;8531;48.078;11.968;2023-12-20T05:53:00;1.65;;;0.50;;
16828;SDS011;8531;48.078;11.968;2023-12-20T05:55:26;3.90;;;0.63;;
16828;SDS011;8531;48.078;11.968;2023-12-20T05:57:51;0.70;;;0.60;;
16828;SDS011;8531;48.078;11.968;2023-12-20T06:00:17;1.67;;;0.73;;
16828;SDS011;8531;48.078;11.968;2023-12-20T06:02:43;1.55;;;0.55;;
16828;SDS011;8531;48.078;11.968;2023-12-20T06:05:09;5.93;;;0.75;;
16828;SDS011;8531;48.078;11.968;2023-12-20T06:07:35;0.38;;;0.30;;
16828;SDS011;8531;48.078;11.968;2023-12-20T06:10:00;0.52;;;0.45;;
16828;SDS011;8531;48.078;11.968;2023-12-20T06:12:26;1.52;;;0.70;;
16828;SDS011;8531;48.078;11.968;2023-12-20T06:14:53;0.77;;;0.50;;
16828;SDS011;8531;48.078;11.968;2023-12-20T06:17:19;1.50;;;0.40;;
16828;SDS011;8531;48.078;11.968;2023-12-20T06:19:45;1.45;;;0.63;;
16828;SDS011;8531;48.078;11.968;2023-12-20T06:22:13;1.45;;;0.75;;
16828;SDS011;8531;48.078;11.968;2023-12-20T06:24:39;0.85;;;0.68;;
16828;SDS011;8531;48.078;11.968;2023-12-20T06:27:05;1.42;;;0.50;;
16828;SDS011;8531;48.078;11.968;2023-12-20T06:29:30;1.02;;;0.50;;
16828;SDS011;8531;48.078;11.968;2023-12-20T06:31:56;1.52;;;0.50;;
16828;SDS011;8531;48.078;11.968;2023-12-20T06:34:21;0.75;;;0.60;;
16828;SDS011;8531;48.078;11.968;2023-12-20T06:36:47;3.00;;;1.05;;
16828;SDS011;8531;48.078;11.968;2023-12-20T06:39:13;0.68;;;0.50;;
16828;SDS011;8531;48.078;11.968;2023-12-20T06:41:39;1.08;;;0.55;;
16828;SDS011;8531;48.078;11.968;2023-12-20T06:44:05;0.73;;;0.50;;
16828;SDS011;8531;48.078;11.968;2023-12-20T06:46:31;0.40;;;0.30;;
16828;SDS011;8531;48.078;11.968;2023-12-20T06:48:56;0.50;;;0.38;;
16828;SDS011;8531;48.078;11.968;2023-12-20T06:51:22;0.82;;;0.38;;
16828;SDS011;8531;48.078;11.968;2023-12-20T06:53:50;0.75;;;0.60;;
16828;SDS011;8531;48.078;11.968;2023-12-20T06:56:17;0.90;;;0.47;;
16828;SDS011;8531;48.078;11.968;2023-12-20T06:58:42;0.70;;;0.50;;
16828;SDS011;8531;48.078;11.968;2023-12-20T07:01:11;1.00;;;0.60;;
16828;SDS011;8531;48.078;11.968;2023-12-20T07:03:38;1.70;;;0.50;;
16828;SDS011;8531;48.078;11.968;2023-12-20T07:06:04;0.80;;;0.50;;
16828;SDS011;8531;48.078;11.968;2023-12-20T07:08:30;0.80;;;0.30;;
16828;SDS011;8531;48.078;11.968;2023-12-20T07:10:56;0.90;;;0.40;;
16828;SDS011;8531;48.078;11.968;2023-12-20T07:13:22;0.52;;;0.50;;
16828;SDS011;8531;48.078;11.968;2023-12-20T07:15:48;1.20;;;0.25;;
16828;SDS011;8531;48.078;11.968;2023-12-20T07:18:13;1.30;;;0.45;;
16828;SDS011;8531;48.078;11.968;2023-12-20T07:20:39;0.82;;;0.32;;
16828;SDS011;8531;48.078;11.968;2023-12-20T07:23:05;0.82;;;0.30;;
16828;SDS011;8531;48.078;11.968;2023-12-20T07:25:30;1.00;;;0.40;;
16828;SDS011;8531;48.078;11.968;2023-12-20T07:27:59;2.35;;;0.50;;
16828;SDS011;8531;48.078;11.968;2023-12-20T07:30:24;2.33;;;0.40;;
16828;SDS011;8531;48.078;11.968;2023-12-20T07:32:50;0.60;;;0.38;;
16828;SDS011;8531;48.078;11.968;2023-12-20T07:35:17;1.38;;;0.50;;
16828;SDS011;8531;48.078;11.968;2023-12-20T07:37:43;1.50;;;0.32;;
16828;SDS011;8531;48.078;11.968;2023-12-20T07:40:09;0.88;;;0.30;;
16828;SDS011;8531;48.078;11.968;2023-12-20T07:42:35;1.25;;;0.30;;
16828;SDS011;8531;48.078;11.968;2023-12-20T07:45:01;2.30;;;0.70;;
16828;SDS011;8531;48.078;11.968;2023-12-20T07:47:27;0.85;;;0.40;;
16828;SDS011;8531;48.078;11.968;2023-12-20T07:49:52;0.68;;;0.20;;
16828;SDS011;8531;48.078;11.968;2023-12-20T07:52:18;0.17;;;0.10;;
16828;SDS011;8531;48.078;11.968;2023-12-20T07:54:44;0.30;;;0.20;;
16828;SDS011;8531;48.078;11.968;2023-12-20T07:57:11;0.35;;;0.13;;
16828;SDS011;8531;48.078;11.968;2023-12-20T07:59:37;1.05;;;0.40;;
16828;SDS011;8531;48.078;11.968;2023-12-20T08:02:02;0.70;;;0.50;;
16828;SDS011;8531;48.078;11.968;2023-12-20T08:04:28;0.25;;;0.20;;
16828;SDS011;8531;48.078;11.968;2023-12-20T08:06:54;0.28;;;0.10;;
16828;SDS011;8531;48.078;11.968;2023-12-20T08:09:20;0.82;;;0.47;;
16828;SDS011;8531;48.078;11.968;2023-12-20T08:11:46;0.82;;;0.22;;
16828;SDS011;8531;48.078;11.968;2023-12-20T08:14:12;0.82;;;0.30;;
16828;SDS011;8531;48.078;11.968;2023-12-20T08:16:39;1.13;;;0.40;;
16828;SDS011;8531;48.078;11.968;2023-12-20T08:19:05;0.40;;;0.22;;
16828;SDS011;8531;48.078;11.968;2023-12-20T08:21:30;0.63;;;0.20;;
16828;SDS011;8531;48.078;11.968;2023-12-20T08:23:56;1.65;;;0.30;;
16828;SDS011;8531;48.078;11.968;2023-12-20T08:26:22;0.68;;;0.20;;
16828;SDS011;8531;48.078;11.968;2023-12-20T08:28:49;0.47;;;0.30;;
16828;SDS011;8531;48.078;11.968;2023-12-20T08:31:15;0.93;;;0.40;;
16828;SDS011;8531;48.078;11.968;2023-12-20T08:33:42;0.95;;;0.38;;
16828;SDS011;8531;48.078;11.968;2023-12-20T08:36:09;0.85;;;0.40;;
16828;SDS011;8531;48.078;11.968;2023-12-20T08:38:35;0.40;;;0.30;;
16828;SDS011;8531;48.078;11.968;2023-12-20T08:41:01;0.93;;;0.30;;
16828;SDS011;8531;48.078;11.968;2023-12-20T08:43:30;1.15;;;0.32;;
16828;SDS011;8531;48.078;11.968;2023-12-20T08:45:56;0.40;;;0.30;;
16828;SDS011;8531;48.078;11.968;2023-12-20T08:48:21;0.63;;;0.30;;
16828;SDS011;8531;48.078;11.968;2023-12-20T08:50:47;0.95;;;0.40;;
16828;SDS011;8531;48.078;11.968;2023-12-20T08:53:15;0.50;;;0.25;;
16828;SDS011;8531;48.078;11.968;2023-12-20T08:55:41;0.35;;;0.28;;
16828;SDS011;8531;48.078;11.968;2023-12-20T08:58:07;0.52;;;0.40;;
16828;SDS011;8531;48.078;11.968;2023-12-20T09:00:33;0.98;;;0.50;;
16828;SDS011;8531;48.078;11.968;2023-12-20T09:02:59;0.70;;;0.50;;
16828;SDS011;8531;48.078;11.968;2023-12-20T09:05:26;0.43;;;0.40;;
16828;SDS011;8531;48.078;11.968;2023-12-20T09:07:51;1.20;;;0.55;;
16828;SDS011;8531;48.078;11.968;2023-12-20T09:10:17;1.10;;;0.60;;
16828;SDS011;8531;48.078;11.968;2023-12-20T09:12:47;0.50;;;0.47;;
16828;SDS011;8531;48.078;11.968;2023-12-20T09:15:15;1.35;;;0.90;;
16828;SDS011;8531;48.078;11.968;2023-12-20T09:17:41;1.10;;;0.60;;
16828;SDS011;8531;48.078;11.968;2023-12-20T09:20:07;1.58;;;0.65;;
16828;SDS011;8531;48.078;11.968;2023-12-20T09:22:33;0.95;;;0.60;;
16828;SDS011;8531;48.078;11.968;2023-12-20T09:24:59;0.80;;;0.38;;
16828;SDS011;8531;48.078;11.968;2023-12-20T09:27:26;0.68;;;0.43;;
16828;SDS011;8531;48.078;11.968;2023-12-20T09:29:53;0.38;;;0.20;;
16828;SDS011;8531;48.078;11.968;2023-12-20T09:32:19;0.52;;;0.50;;
16828;SDS011;8531;48.078;11.968;2023-12-20T09:34:47;1.10;;;0.52;;
16828;SDS011;8531;48.078;11.968;2023-12-20T09:37:13;0.57;;;0.30;;
16828;SDS011;8531;48.078;11.968;2023-12-20T09:39:39;2.35;;;0.40;;
16828;SDS011;8531;48.078;11.968;2023-12-20T09:42:05;0.70;;;0.50;;
16828;SDS011;8531;48.078;11.968;2023-12-20T09:44:31;0.30;;;0.30;;
16828;SDS011;8531;48.078;11.968;2023-12-20T09:47:04;0.95;;;0.68;;
16828;SDS011;8531;48.078;11.968;2023-12-20T09:49:31;0.40;;;0.32;;
16828;SDS011;8531;48.078;11.968;2023-12-20T09:51:58;0.85;;;0.60;;
16828;SDS011;8531;48.078;11.968;2023-12-20T09:54:25;0.30;;;0.20;;
16828;SDS011;8531;48.078;11.968;2023-12-20T09:56:53;2.22;;;0.68;;
16828;SDS011;8531;48.078;11.968;2023-12-20T09:59:19;0.60;;;0.40;;
16828;SDS011;8531;48.078;11.968;2023-12-20T10:01:45;0.55;;;0.52;;
16828;SDS011;8531;48.078;11.968;2023-12-20T10:04:12;0.80;;;0.50;;
16828;SDS011;8531;48.078;11.968;2023-12-20T10:06:41;1.02;;;0.52;;
16828;SDS011;8531;48.078;11.968;2023-12-20T10:09:08;0.98;;;0.68;;
16828;SDS011;8531;48.078;11.968;2023-12-20T10:11:35;0.82;;;0.57;;
16828;SDS011;8531;48.078;11.968;2023-12-20T10:14:02;1.90;;;0.90;;
16828;SDS011;8531;48.078;11.968;2023-12-20T10:16:29;0.73;;;0.60;;
16828;SDS011;8531;48.078;11.968;2023-12-20T10:18:55;1.30;;;0.60;;
16828;SDS011;8531;48.078;11.968;2023-12-20T10:21:24;1.08;;;0.47;;
16828;SDS011;8531;48.078;11.968;2023-12-20T10:23:51;1.10;;;0.60;;
16828;SDS011;8531;48.078;11.968;2023-12-20T10:26:19;0.65;;;0.30;;
16828;SDS011;8531;48.078;11.968;2023-12-20T10:28:55;0.73;;;0.30;;
16828;SDS011;8531;48.078;11.968;2023-12-20T10:31:28;2.55;;;0.63;;
16828;SDS011;8531;48.078;11.968;2023-12-20T10:33:58;0.85;;;0.20;;
16828;SDS011;8531;48.078;11.968;2023-12-20T10:36:28;0.60;;;0.30;;
16828;SDS011;8531;48.078;11.968;2023-12-20T10:38:55;0.98;;;0.50;;
16828;SDS011;8531;48.078;11.968;2023-12-20T10:43:53;2.22;;;0.90;;
16828;SDS011;8531;48.078;11.968;2023-12-20T10:46:24;0.77;;;0.40;;
16828;SDS011;8531;48.078;11.968;2023-12-20T10:48:51;0.73;;;0.50;;
16828;SDS011;8531;48.078;11.968;2023-12-20T10:51:19;2.35;;;0.70;;
16828;SDS011;8531;48.078;11.968;2023-12-20T10:53:48;0.70;;;0.50;;
16828;SDS011;8531;48.078;11.968;2023-12-20T10:56:16;0.52;;;0.40;;
16828;SDS011;8531;48.078;11.968;2023-12-20T10:58:49;1.10;;;0.88;;
16828;SDS011;8531;48.078;11.968;2023-12-20T11:01:15;0.77;;;0.30;;
16828;SDS011;8531;48.078;11.968;2023-12-20T11:03:44;1.23;;;0.40;;
16828;SDS011;8531;48.078;11.968;2023-12-20T11:06:26;0.60;;;0.38;;
16828;SDS011;8531;48.078;11.968;2023-12-20T11:17:09;1.13;;;0.47;;
16828;SDS011;8531;48.078;11.968;2023-12-20T11:22:26;1.52;;;0.45;;
16828;SDS011;8531;48.078;11.968;2023-12-20T11:24:58;1.20;;;1.05;;
16828;SDS011;8531;48.078;11.968;2023-12-20T11:27:31;0.57;;;0.50;;
16828;SDS011;8531;48.078;11.968;2023-12-20T11:29:57;0.70;;;0.60;;
16828;SDS011;8531;48.078;11.968;2023-12-20T11:37:28;1.23;;;0.80;;
16828;SDS011;8531;48.078;11.968;2023-12-20T11:40:05;0.45;;;0.30;;
16828;SDS011;8531;48.078;11.968;2023-12-20T11:42:41;0.50;;;0.50;;
16828;SDS011;8531;48.078;11.968;2023-12-20T11:45:18;1.05;;;0.82;;
16828;SDS011;8531;48.078;11.968;2023-12-20T11:47:47;1.50;;;0.90;;
16828;SDS011;8531;48.078;11.968;2023-12-20T11:50:16;1.65;;;1.00;;
16828;SDS011;8531;48.078;11.968;2023-12-20T11:52:43;1.63;;;1.20;;
16828;SDS011;8531;48.078;11.968;2023-12-20T11:55:09;1.85;;;1.20;;
16828;SDS011;8531;48.078;11.968;2023-12-20T11:57:35;1.63;;;0.93;;
16828;SDS011;8531;48.078;11.968;2023-12-20T12:00:02;1.35;;;1.13;;
16828;SDS011;8531;48.078;11.968;2023-12-20T12:02:29;2.00;;;1.38;;
16828;SDS011;8531;48.078;11.968;2023-12-20T12:04:55;3.83;;;1.80;;
16828;SDS011;8531;48.078;11.968;2023-12-20T12:07:21;2.75;;;1.77;;
16828;SDS011;8531;48.078;11.968;2023-12-20T12:09:47;2.05;;;1.35;;
16828;SDS011;8531;48.078;11.968;2023-12-20T12:12:13;2.17;;;1.65;;
16828;SDS011;8531;48.078;11.968;2023-12-20T12:14:40;1.83;;;1.40;;
16828;SDS011;8531;48.078;11.968;2023-12-20T12:17:11;1.83;;;0.88;;
16828;SDS011;8531;48.078;11.968;2023-12-20T12:19:38;1.00;;;0.63;;
16828;SDS011;8531;48.078;11.968;2023-12-20T12:22:08;1.35;;;0.90;;
16828;SDS011;8531;48.078;11.968;2023-12-20T12:24:45;1.98;;;1.02;;
16828;SDS011;8531;48.078;11.968;2023-12-20T12:27:12;1.00;;;0.70;;
16828;SDS011;8531;48.078;11.968;2023-12-20T12:29:38;2.65;;;0.77;;
16828;SDS011;8531;48.078;11.968;2023-12-20T12:32:05;1.63;;;0.88;;
16828;SDS011;8531;48.078;11.968;2023-12-20T12:34:32;1.70;;;1.40;;
16828;SDS011;8531;48.078;11.968;2023-12-20T12:36:59;2.17;;;1.02;;
16828;SDS011;8531;48.078;11.968;2023-12-20T12:39:25;1.15;;;1.05;;
16828;SDS011;8531;48.078;11.968;2023-12-20T12:41:51;1.52;;;0.82;;
16828;SDS011;8531;48.078;11.968;2023-12-20T12:44:17;1.20;;;0.88;;
16828;SDS011;8531;48.078;11.968;2023-12-20T12:46:46;1.00;;;0.90;;
16828;SDS011;8531;48.078;11.968;2023-12-20T12:49:12;0.82;;;0.60;;
16828;SDS011;8531;48.078;11.968;2023-12-20T12:51:38;1.33;;;1.00;;
16828;SDS011;8531;48.078;11.968;2023-12-20T12:54:03;2.13;;;1.38;;
16828;SDS011;8531;48.078;11.968;2023-12-20T12:56:29;1.15;;;0.75;;
16828;SDS011;8531;48.078;11.968;2023-12-20T12:58:55;1.08;;;0.75;;
16828;SDS011;8531;48.078;11.968;2023-12-20T13:01:21;1.40;;;1.00;;
16828;SDS011;8531;48.078;11.968;2023-12-20T13:03:47;0.52;;;0.50;;
16828;SDS011;8531;48.078;11.968;2023-12-20T13:06:13;0.73;;;0.60;;
16828;SDS011;8531;48.078;11.968;2023-12-20T13:08:39;1.00;;;0.70;;
16828;SDS011;8531;48.078;11.968;2023-12-20T13:11:05;0.70;;;0.65;;
16828;SDS011;8531;48.078;11.968;2023-12-20T13:13:30;1.10;;;0.60;;
16828;SDS011;8531;48.078;11.968;2023-12-20T13:15:56;1.58;;;1.20;;
16828;SDS011;8531;48.078;11.968;2023-12-20T13:18:22;1.20;;;0.90;;
16828;SDS011;8531;48.078;11.968;2023-12-20T13:20:48;0.80;;;0.60;;
16828;SDS011;8531;48.078;11.968;2023-12-20T13:23:14;0.85;;;0.60;;
16828;SDS011;8531;48.078;11.968;2023-12-20T13:25:41;1.08;;;0.70;;
16828;SDS011;8531;48.078;11.968;2023-12-20T13:28:07;1.33;;;0.60;;
16828;SDS011;8531;48.078;11.968;2023-12-20T13:30:33;0.60;;;0.60;;
16828;SDS011;8531;48.078;11.968;2023-12-20T13:32:59;0.70;;;0.70;;
16828;SDS011;8531;48.078;11.968;2023-12-20T13:35:25;0.88;;;0.60;;
16828;SDS011;8531;48.078;11.968;2023-12-20T13:37:50;1.77;;;0.95;;
16828;SDS011;8531;48.078;11.968;2023-12-20T13:40:16;2.20;;;1.13;;
16828;SDS011;8531;48.078;11.968;2023-12-20T13:42:43;1.70;;;1.10;;
16828;SDS011;8531;48.078;11.968;2023-12-20T13:45:08;2.50;;;0.75;;
16828;SDS011;8531;48.078;11.968;2023-12-20T13:47:34;0.70;;;0.70;;
16828;SDS011;8531;48.078;11.968;2023-12-20T13:50:00;1.20;;;0.80;;
16828;SDS011;8531;48.078;11.968;2023-12-20T13:52:27;1.50;;;1.23;;
16828;SDS011;8531;48.078;11.968;2023-12-20T13:54:53;1.02;;;0.82;;
16828;SDS011;8531;48.078;11.968;2023-12-20T13:57:18;0.80;;;0.80;;
16828;SDS011;8531;48.078;11.968;2023-12-20T13:59:44;1.73;;;1.15;;
16828;SDS011;8531;48.078;11.968;2023-12-20T14:02:10;2.17;;;1.48;;
16828;SDS011;8531;48.078;11.968;2023-12-20T14:04:35;1.77;;;0.82;;
16828;SDS011;8531;48.078;11.968;2023-12-20T14:07:01;1.30;;;1.15;;
16828;SDS011;8531;48.078;11.968;2023-12-20T14:09:27;2.10;;;1.05;;
16828;SDS011;8531;48.078;11.968;2023-12-20T14:11:53;2.25;;;0.95;;
16828;SDS011;8531;48.078;11.968;2023-12-20T14:14:19;1.77;;;1.50;;
16828;SDS011;8531;48.078;11.968;2023-12-20T14:16:45;1.33;;;1.08;;
16828;SDS011;8531;48.078;11.968;2023-12-20T14:19:11;2.13;;;1.40;;
16828;SDS011;8531;48.078;11.968;2023-12-20T14:21:37;1.73;;;1.20;;
16828;SDS011;8531;48.078;11.968;2023-12-20T14:24:03;3.83;;;1.52;;
16828;SDS011;8531;48.078;11.968;2023-12-20T14:26:29;2.25;;;1.88;;
16828;SDS011;8531;48.078;11.968;2023-12-20T14:28:56;1.80;;;1.45;;
16828;SDS011;8531;48.078;11.968;2023-12-20T14:31:22;1.85;;;1.60;;
16828;SDS011;8531;48.078;11.968;2023-12-20T14:33:49;2.22;;;1.38;;
16828;SDS011;8531;48.078;11.968;2023-12-20T14:36:16;3.55;;;1.90;;
16828;SDS011;8531;48.078;11.968;2023-12-20T14:38:43;1.67;;;1.50;;
16828;SDS011;8531;48.078;11.968;2023-12-20T14:41:09;3.45;;;1.88;;
16828;SDS011;8531;48.078;11.968;2023-12-20T14:43:34;4.70;;;1.73;;
16828;SDS011;8531;48.078;11.968;2023-12-20T14:46:00;3.30;;;1.58;;
16828;SDS011;8531;48.078;11.968;2023-12-20T14:48:26;4.03;;;1.85;;
16828;SDS011;8531;48.078;11.968;2023-12-20T14:50:54;3.15;;;1.52;;
16828;SDS011;8531;48.078;11.968;2023-12-20T14:53:20;3.72;;;2.10;;
16828;SDS011;8531;48.078;11.968;2023-12-20T14:55:46;4.95;;;2.75;;
16828;SDS011;8531;48.078;11.968;2023-12-20T14:58:12;4.10;;;2.38;;
16828;SDS011;8531;48.078;11.968;2023-12-20T15:00:39;3.97;;;2.20;;